GJT34G EYVI-EYVI
Flight info
| Callsign | GJT34G |
|---|---|
| Flight time | 0h 32m |
| Altitude | 3000 |
| Route | IFR CIRCUITS |
| Aircraft | A320/M-SDE2E3FGIJ1LORWXYZ/HB1 |
Departure
| Time | 2026-04-28 16:33 |
|---|---|
| Airport | Vilnius International Airport (EYVI) |
Arrival
| Time | 2026-04-28 17:06 |
|---|---|
| Airport | Vilnius International Airport (EYVI) |
| Time | Latitude | Longitude | Altitude | Speed | Heading |
|---|---|---|---|---|---|
| 2026-04-28 16:13 | 54.64604 | 25.28701 | 655 ft | 0 kts | 349° |
| 2026-04-28 16:24 | 54.64598 | 25.28703 | 660 ft | 2 kts | 351° |
| 2026-04-28 16:24 | 54.64578 | 25.28707 | 660 ft | 3 kts | 0° |
| 2026-04-28 16:24 | 54.64558 | 25.28704 | 657 ft | 3 kts | 19° |
| 2026-04-28 16:24 | 54.64542 | 25.28690 | 654 ft | 3 kts | 58° |
| 2026-04-28 16:25 | 54.64538 | 25.28676 | 659 ft | 0 kts | 78° |
| 2026-04-28 16:28 | 54.64540 | 25.28693 | 654 ft | 6 kts | 77° |
| 2026-04-28 16:28 | 54.64550 | 25.28771 | 656 ft | 6 kts | 76° |
| 2026-04-28 16:28 | 54.64557 | 25.28823 | 657 ft | 3 kts | 78° |
| 2026-04-28 16:28 | 54.64561 | 25.28882 | 657 ft | 9 kts | 89° |
| 2026-04-28 16:29 | 54.64434 | 25.28981 | 657 ft | 18 kts | 199° |
| 2026-04-28 16:29 | 54.64110 | 25.28754 | 647 ft | 28 kts | 201° |
| 2026-04-28 16:30 | 54.63917 | 25.28621 | 640 ft | 27 kts | 201° |
| 2026-04-28 16:30 | 54.63739 | 25.28497 | 625 ft | 24 kts | 202° |
| 2026-04-28 16:30 | 54.63578 | 25.28384 | 618 ft | 27 kts | 202° |
| 2026-04-28 16:30 | 54.63389 | 25.28254 | 610 ft | 31 kts | 201° |
| 2026-04-28 16:31 | 54.63185 | 25.28110 | 617 ft | 33 kts | 201° |
| 2026-04-28 16:31 | 54.63018 | 25.28007 | 606 ft | 17 kts | 177° |
| 2026-04-28 16:31 | 54.62984 | 25.28082 | 603 ft | 8 kts | 115° |
| 2026-04-28 16:31 | 54.62962 | 25.28169 | 602 ft | 9 kts | 112° |
| 2026-04-28 16:32 | 54.62971 | 25.28262 | 602 ft | 8 kts | 45° |
| 2026-04-28 16:32 | 54.62996 | 25.28287 | 602 ft | 0 kts | 22° |
| 2026-04-28 16:32 | 54.63011 | 25.28297 | 602 ft | 13 kts | 21° |
| 2026-04-28 16:33 | 54.63373 | 25.28547 | 610 ft | 99 kts | 22° |
| 2026-04-28 16:33 | 54.63892 | 25.28907 | 641 ft | 143 kts | 21° |
| 2026-04-28 16:33 | 54.65308 | 25.29837 | 1329 ft | 171 kts | 21° |
| 2026-04-28 16:33 | 54.66425 | 25.30628 | 2138 ft | 181 kts | 22° |
| 2026-04-28 16:34 | 54.67650 | 25.31501 | 2781 ft | 200 kts | 21° |
| 2026-04-28 16:34 | 54.68996 | 25.32400 | 3416 ft | 216 kts | 23° |
| 2026-04-28 16:34 | 54.70229 | 25.34056 | 3903 ft | 240 kts | 54° |
| 2026-04-28 16:34 | 54.70845 | 25.36854 | 4485 ft | 264 kts | 85° |
| 2026-04-28 16:35 | 54.70630 | 25.40056 | 4813 ft | 272 kts | 111° |
| 2026-04-28 16:35 | 54.69600 | 25.42739 | 4872 ft | 270 kts | 139° |
| 2026-04-28 16:35 | 54.67967 | 25.44266 | 4880 ft | 268 kts | 167° |
| 2026-04-28 16:35 | 54.66127 | 25.44277 | 4883 ft | 267 kts | 193° |
| 2026-04-28 16:36 | 54.64339 | 25.43382 | 4883 ft | 268 kts | 198° |
| 2026-04-28 16:36 | 54.62569 | 25.42373 | 4881 ft | 268 kts | 199° |
| 2026-04-28 16:36 | 54.60798 | 25.41350 | 4881 ft | 268 kts | 199° |
| 2026-04-28 16:36 | 54.59033 | 25.40327 | 4881 ft | 268 kts | 199° |
| 2026-04-28 16:37 | 54.57267 | 25.39303 | 4881 ft | 268 kts | 199° |
| 2026-04-28 16:37 | 54.55506 | 25.38281 | 4718 ft | 265 kts | 199° |
| 2026-04-28 16:37 | 54.53762 | 25.37270 | 4235 ft | 264 kts | 199° |
| 2026-04-28 16:38 | 54.50295 | 25.35264 | 3316 ft | 261 kts | 199° |
| 2026-04-28 16:38 | 54.48582 | 25.34273 | 2915 ft | 258 kts | 199° |
| 2026-04-28 16:38 | 54.46880 | 25.33264 | 2847 ft | 259 kts | 202° |
| 2026-04-28 16:38 | 54.45436 | 25.31471 | 2852 ft | 259 kts | 231° |
| 2026-04-28 16:39 | 54.44693 | 25.28718 | 2853 ft | 249 kts | 261° |
| 2026-04-28 16:39 | 54.44821 | 25.25896 | 2852 ft | 230 kts | 285° |
| 2026-04-28 16:39 | 54.45286 | 25.23369 | 2850 ft | 213 kts | 288° |
| 2026-04-28 16:39 | 54.45758 | 25.21029 | 2851 ft | 206 kts | 289° |
| 2026-04-28 16:40 | 54.46238 | 25.18682 | 2856 ft | 209 kts | 289° |
| 2026-04-28 16:40 | 54.46923 | 25.16501 | 2848 ft | 210 kts | 315° |
| 2026-04-28 16:40 | 54.48197 | 25.15348 | 2851 ft | 211 kts | 352° |
| 2026-04-28 16:40 | 54.49630 | 25.15702 | 2855 ft | 212 kts | 28° |
| 2026-04-28 16:41 | 54.50750 | 25.17311 | 2764 ft | 210 kts | 50° |
| 2026-04-28 16:41 | 54.51677 | 25.19208 | 2559 ft | 209 kts | 50° |
| 2026-04-28 16:41 | 54.52667 | 25.21000 | 2533 ft | 202 kts | 35° |
| 2026-04-28 16:41 | 54.53909 | 25.22034 | 2368 ft | 197 kts | 21° |
| 2026-04-28 16:42 | 54.55115 | 25.22852 | 2155 ft | 186 kts | 21° |
| 2026-04-28 16:42 | 54.56312 | 25.23670 | 1892 ft | 173 kts | 21° |
| 2026-04-28 16:42 | 54.57384 | 25.24408 | 1690 ft | 157 kts | 21° |
| 2026-04-28 16:42 | 54.58350 | 25.25074 | 1480 ft | 143 kts | 21° |
| 2026-04-28 16:43 | 54.59251 | 25.25694 | 1296 ft | 137 kts | 20° |
| 2026-04-28 16:43 | 54.60128 | 25.26293 | 1120 ft | 135 kts | 21° |
| 2026-04-28 16:43 | 54.60995 | 25.26894 | 923 ft | 133 kts | 21° |
| 2026-04-28 16:43 | 54.61854 | 25.27486 | 745 ft | 133 kts | 22° |
| 2026-04-28 16:44 | 54.62703 | 25.28085 | 604 ft | 127 kts | 22° |
| 2026-04-28 16:44 | 54.63433 | 25.28588 | 615 ft | 106 kts | 21° |
| 2026-04-28 16:44 | 54.64326 | 25.29223 | 808 ft | 161 kts | 22° |
| 2026-04-28 16:44 | 54.65461 | 25.30033 | 1358 ft | 193 kts | 21° |
| 2026-04-28 16:45 | 54.66782 | 25.30930 | 1943 ft | 201 kts | 20° |
| 2026-04-28 16:45 | 54.68066 | 25.31809 | 2484 ft | 204 kts | 22° |
| 2026-04-28 16:45 | 54.69415 | 25.32825 | 3139 ft | 218 kts | 30° |
| 2026-04-28 16:45 | 54.70478 | 25.34734 | 3888 ft | 228 kts | 64° |
| 2026-04-28 16:46 | 54.70803 | 25.37472 | 4609 ft | 247 kts | 94° |
| 2026-04-28 16:46 | 54.70293 | 25.40447 | 4829 ft | 268 kts | 121° |
| 2026-04-28 16:46 | 54.69008 | 25.42737 | 4849 ft | 268 kts | 150° |
| 2026-04-28 16:46 | 54.67247 | 25.43700 | 4856 ft | 267 kts | 178° |
| 2026-04-28 16:47 | 54.65395 | 25.43469 | 4854 ft | 268 kts | 188° |
| 2026-04-28 16:47 | 54.63547 | 25.43020 | 4857 ft | 268 kts | 189° |
| 2026-04-28 16:47 | 54.61744 | 25.42560 | 4819 ft | 267 kts | 189° |
| 2026-04-28 16:47 | 54.59959 | 25.41817 | 4372 ft | 264 kts | 204° |
| 2026-04-28 16:48 | 54.58321 | 25.40399 | 3889 ft | 263 kts | 208° |
| 2026-04-28 16:48 | 54.56721 | 25.38905 | 3423 ft | 261 kts | 209° |
| 2026-04-28 16:48 | 54.55129 | 25.37406 | 2972 ft | 259 kts | 209° |
| 2026-04-28 16:48 | 54.53555 | 25.35924 | 2843 ft | 258 kts | 209° |
| 2026-04-28 16:49 | 54.51974 | 25.34435 | 2851 ft | 260 kts | 209° |
| 2026-04-28 16:49 | 54.50391 | 25.32946 | 2853 ft | 260 kts | 209° |
| 2026-04-28 16:49 | 54.48808 | 25.31458 | 2850 ft | 253 kts | 209° |
| 2026-04-28 16:49 | 54.47322 | 25.30061 | 2850 ft | 234 kts | 209° |
| 2026-04-28 16:50 | 54.45913 | 25.28738 | 2852 ft | 230 kts | 209° |
| 2026-04-28 16:50 | 54.44663 | 25.27085 | 2854 ft | 228 kts | 233° |
| 2026-04-28 16:50 | 54.44105 | 25.24571 | 2855 ft | 228 kts | 266° |
| 2026-04-28 16:50 | 54.44424 | 25.21920 | 2863 ft | 229 kts | 294° |
| 2026-04-28 16:51 | 54.45167 | 25.19489 | 2854 ft | 230 kts | 304° |
| 2026-04-28 16:51 | 54.46379 | 25.17754 | 2816 ft | 230 kts | 339° |
| 2026-04-28 16:51 | 54.47934 | 25.17413 | 2593 ft | 224 kts | 6° |
| 2026-04-28 16:51 | 54.49288 | 25.18466 | 2553 ft | 209 kts | 37° |
| 2026-04-28 16:52 | 54.50481 | 25.19691 | 2579 ft | 192 kts | 22° |
| 2026-04-28 16:52 | 54.51698 | 25.20512 | 2562 ft | 185 kts | 21° |
| 2026-04-28 16:52 | 54.52886 | 25.21313 | 2509 ft | 182 kts | 21° |
| 2026-04-28 16:52 | 54.54056 | 25.22114 | 2337 ft | 180 kts | 21° |
| 2026-04-28 16:53 | 54.55164 | 25.22876 | 2140 ft | 160 kts | 21° |
| 2026-04-28 16:53 | 54.56148 | 25.23554 | 1931 ft | 145 kts | 21° |
| 2026-04-28 16:53 | 54.57057 | 25.24181 | 1741 ft | 138 kts | 21° |
| 2026-04-28 16:53 | 54.57939 | 25.24789 | 1563 ft | 135 kts | 21° |
| 2026-04-28 16:54 | 54.58811 | 25.25380 | 1362 ft | 134 kts | 22° |
| 2026-04-28 16:54 | 54.59670 | 25.25983 | 1166 ft | 133 kts | 21° |
| 2026-04-28 16:54 | 54.60528 | 25.26580 | 1004 ft | 133 kts | 21° |
| 2026-04-28 16:54 | 54.61095 | 25.26978 | 892 ft | 132 kts | 21° |
| 2026-04-28 16:55 | 54.62238 | 25.27761 | 677 ft | 132 kts | 21° |
| 2026-04-28 16:55 | 54.63055 | 25.28326 | 604 ft | 114 kts | 21° |
| 2026-04-28 16:55 | 54.63882 | 25.28891 | 738 ft | 150 kts | 22° |
| 2026-04-28 16:55 | 54.64903 | 25.29595 | 1418 ft | 166 kts | 21° |
| 2026-04-28 16:56 | 54.66042 | 25.30429 | 2103 ft | 184 kts | 25° |
| 2026-04-28 16:56 | 54.67107 | 25.31742 | 2836 ft | 204 kts | 52° |
| 2026-04-28 16:56 | 54.67679 | 25.34194 | 3097 ft | 239 kts | 86° |
| 2026-04-28 16:56 | 54.67331 | 25.36964 | 3999 ft | 238 kts | 120° |
| 2026-04-28 16:57 | 54.66199 | 25.39141 | 4607 ft | 256 kts | 147° |
| 2026-04-28 16:57 | 54.64497 | 25.40228 | 4798 ft | 267 kts | 175° |
| 2026-04-28 16:57 | 54.62640 | 25.40076 | 4847 ft | 269 kts | 187° |
| 2026-04-28 16:57 | 54.60787 | 25.39635 | 4854 ft | 268 kts | 188° |
| 2026-04-28 16:58 | 54.58939 | 25.39165 | 4853 ft | 268 kts | 189° |
| 2026-04-28 16:58 | 54.57093 | 25.38691 | 4856 ft | 268 kts | 189° |
| 2026-04-28 16:58 | 54.55248 | 25.38216 | 4856 ft | 268 kts | 189° |
| 2026-04-28 16:58 | 54.53415 | 25.37628 | 4793 ft | 266 kts | 197° |
| 2026-04-28 16:59 | 54.51751 | 25.36363 | 4453 ft | 260 kts | 207° |
| 2026-04-28 16:59 | 54.50146 | 25.34886 | 3899 ft | 262 kts | 208° |
| 2026-04-28 16:59 | 54.48546 | 25.33386 | 3423 ft | 261 kts | 209° |
| 2026-04-28 16:59 | 54.46972 | 25.31907 | 3151 ft | 252 kts | 209° |
| 2026-04-28 17:00 | 54.45478 | 25.30505 | 3023 ft | 238 kts | 209° |
| 2026-04-28 17:00 | 54.44052 | 25.29168 | 2917 ft | 230 kts | 209° |
| 2026-04-28 17:00 | 54.42704 | 25.27720 | 2847 ft | 228 kts | 224° |
| 2026-04-28 17:00 | 54.41911 | 25.25403 | 2855 ft | 228 kts | 257° |
| 2026-04-28 17:01 | 54.41987 | 25.22717 | 2856 ft | 229 kts | 289° |
| 2026-04-28 17:01 | 54.42664 | 25.20246 | 2853 ft | 226 kts | 297° |
| 2026-04-28 17:01 | 54.43471 | 25.17957 | 2846 ft | 223 kts | 311° |
| 2026-04-28 17:01 | 54.44749 | 25.16525 | 2849 ft | 222 kts | 342° |
| 2026-04-28 17:02 | 54.46258 | 25.16603 | 2678 ft | 220 kts | 21° |
| 2026-04-28 17:02 | 54.47182 | 25.17300 | 2576 ft | 221 kts | 24° |
| 2026-04-28 17:02 | 54.49072 | 25.18677 | 2547 ft | 214 kts | 22° |
| 2026-04-28 17:02 | 54.50384 | 25.19584 | 2546 ft | 200 kts | 21° |
| 2026-04-28 17:03 | 54.52847 | 25.21279 | 2525 ft | 183 kts | 21° |
| 2026-04-28 17:03 | 54.54023 | 25.22089 | 2339 ft | 181 kts | 21° |
| 2026-04-28 17:03 | 54.55183 | 25.22888 | 2143 ft | 175 kts | 21° |
| 2026-04-28 17:04 | 54.57200 | 25.24273 | 1674 ft | 142 kts | 22° |
| 2026-04-28 17:04 | 54.58098 | 25.24882 | 1489 ft | 136 kts | 21° |
| 2026-04-28 17:05 | 54.59828 | 25.26088 | 1121 ft | 131 kts | 21° |
| 2026-04-28 17:05 | 54.60681 | 25.26677 | 964 ft | 132 kts | 20° |
| 2026-04-28 17:05 | 54.61534 | 25.27273 | 835 ft | 134 kts | 20° |
| 2026-04-28 17:06 | 54.63174 | 25.28409 | 605 ft | 102 kts | 21° |
| 2026-04-28 17:06 | 54.63675 | 25.28759 | 631 ft | 47 kts | 21° |
| 2026-04-28 17:06 | 54.63861 | 25.28741 | 638 ft | 15 kts | 356° |
| 2026-04-28 17:07 | 54.63956 | 25.28726 | 641 ft | 4 kts | 356° |
| 2026-04-28 17:07 | 54.63975 | 25.28723 | 642 ft | 1 kts | 354° |
| 2026-04-28 17:07 | 54.63978 | 25.28722 | 642 ft | 0 kts | 353° |
| 2026-04-28 17:08 | 54.64016 | 25.28714 | 643 ft | 12 kts | 353° |
| 2026-04-28 17:08 | 54.64094 | 25.28702 | 646 ft | 20 kts | 356° |
| 2026-04-28 17:08 | 54.64239 | 25.28679 | 649 ft | 22 kts | 355° |
| 2026-04-28 17:08 | 54.64394 | 25.28648 | 651 ft | 20 kts | 354° |
| 2026-04-28 17:09 | 54.64524 | 25.28630 | 652 ft | 8 kts | 30° |
| 2026-04-28 17:09 | 54.64541 | 25.28692 | 654 ft | 4 kts | 68° |
| 2026-04-28 17:09 | 54.64563 | 25.28714 | 655 ft | 7 kts | 10° |
| 2026-04-28 17:09 | 54.64590 | 25.28706 | 657 ft | 2 kts | 347° |
| 2026-04-28 17:10 | 54.64605 | 25.28701 | 656 ft | 0 kts | 348° |